sensor_id;sensor_type;location;lat;lon;timestamp;temperature;humidity
54082;DHT22;39986;50.770;0.266;2023-04-03T00:01:43;6.60;99.90
54082;DHT22;39986;50.770;0.266;2023-04-03T00:04:08;6.60;99.90
54082;DHT22;39986;50.770;0.266;2023-04-03T00:06:34;6.60;99.90
54082;DHT22;39986;50.770;0.266;2023-04-03T00:09:00;6.60;99.90
54082;DHT22;39986;50.770;0.266;2023-04-03T00:11:25;6.60;99.90
54082;DHT22;39986;50.770;0.266;2023-04-03T00:13:51;6.60;99.90
54082;DHT22;39986;50.770;0.266;2023-04-03T00:16:17;6.50;99.90
54082;DHT22;39986;50.770;0.266;2023-04-03T00:18:42;6.50;99.90
54082;DHT22;39986;50.770;0.266;2023-04-03T00:21:09;6.50;99.90
54082;DHT22;39986;50.770;0.266;2023-04-03T00:23:34;6.60;99.90
54082;DHT22;39986;50.770;0.266;2023-04-03T00:26:00;6.50;99.90
54082;DHT22;39986;50.770;0.266;2023-04-03T00:28:25;6.70;99.90
54082;DHT22;39986;50.770;0.266;2023-04-03T00:30:52;6.70;99.90
54082;DHT22;39986;50.770;0.266;2023-04-03T00:33:18;6.80;99.90
54082;DHT22;39986;50.770;0.266;2023-04-03T00:35:46;6.80;99.90
54082;DHT22;39986;50.770;0.266;2023-04-03T00:38:13;6.80;99.90
54082;DHT22;39986;50.770;0.266;2023-04-03T00:40:41;6.90;99.90
54082;DHT22;39986;50.770;0.266;2023-04-03T00:43:12;6.90;99.90
54082;DHT22;39986;50.770;0.266;2023-04-03T00:45:39;6.90;99.90
54082;DHT22;39986;50.770;0.266;2023-04-03T00:48:06;7.00;99.90
54082;DHT22;39986;50.770;0.266;2023-04-03T00:50:34;6.90;99.90
54082;DHT22;39986;50.770;0.266;2023-04-03T00:53:00;7.00;99.90
54082;DHT22;39986;50.770;0.266;2023-04-03T00:55:27;6.90;99.90
54082;DHT22;39986;50.770;0.266;2023-04-03T00:57:53;7.00;99.90
54082;DHT22;39986;50.770;0.266;2023-04-03T01:00:20;7.00;99.90
54082;DHT22;39986;50.770;0.266;2023-04-03T01:02:47;6.90;99.90
54082;DHT22;39986;50.770;0.266;2023-04-03T01:05:13;7.20;99.90
54082;DHT22;39986;50.770;0.266;2023-04-03T01:07:40;7.00;99.90
54082;DHT22;39986;50.770;0.266;2023-04-03T01:10:07;7.00;99.90
54082;DHT22;39986;50.770;0.266;2023-04-03T01:12:35;7.00;99.90
54082;DHT22;39986;50.770;0.266;2023-04-03T01:15:03;7.00;99.90
54082;DHT22;39986;50.770;0.266;2023-04-03T01:20:18;6.90;99.90
54082;DHT22;39986;50.770;0.266;2023-04-03T01:22:53;6.90;99.90
54082;DHT22;39986;50.770;0.266;2023-04-03T01:25:23;6.80;99.90
54082;DHT22;39986;50.770;0.266;2023-04-03T01:27:49;6.80;99.90
54082;DHT22;39986;50.770;0.266;2023-04-03T01:30:16;6.70;99.90
54082;DHT22;39986;50.770;0.266;2023-04-03T01:32:42;6.80;99.90
54082;DHT22;39986;50.770;0.266;2023-04-03T01:35:08;6.70;99.90
54082;DHT22;39986;50.770;0.266;2023-04-03T01:37:34;6.70;99.90
54082;DHT22;39986;50.770;0.266;2023-04-03T01:39:59;6.60;99.90
54082;DHT22;39986;50.770;0.266;2023-04-03T01:42:25;6.60;99.90
54082;DHT22;39986;50.770;0.266;2023-04-03T01:44:50;6.50;99.90
54082;DHT22;39986;50.770;0.266;2023-04-03T01:47:16;6.50;99.90
54082;DHT22;39986;50.770;0.266;2023-04-03T01:49:42;6.50;99.90
54082;DHT22;39986;50.770;0.266;2023-04-03T01:52:07;6.60;99.90
54082;DHT22;39986;50.770;0.266;2023-04-03T01:54:33;6.50;99.90
54082;DHT22;39986;50.770;0.266;2023-04-03T01:56:58;6.40;99.90
54082;DHT22;39986;50.770;0.266;2023-04-03T01:59:24;6.40;99.90
54082;DHT22;39986;50.770;0.266;2023-04-03T02:01:49;6.40;99.90
54082;DHT22;39986;50.770;0.266;2023-04-03T02:04:15;6.40;99.90
54082;DHT22;39986;50.770;0.266;2023-04-03T02:06:40;6.40;99.90
54082;DHT22;39986;50.770;0.266;2023-04-03T02:09:06;6.60;99.90
54082;DHT22;39986;50.770;0.266;2023-04-03T02:11:32;6.40;99.90
54082;DHT22;39986;50.770;0.266;2023-04-03T02:13:57;6.30;99.90
54082;DHT22;39986;50.770;0.266;2023-04-03T02:16:23;6.40;99.90
54082;DHT22;39986;50.770;0.266;2023-04-03T02:18:48;6.40;99.90
54082;DHT22;39986;50.770;0.266;2023-04-03T02:21:15;6.30;99.90
54082;DHT22;39986;50.770;0.266;2023-04-03T02:23:40;6.40;99.90
54082;DHT22;39986;50.770;0.266;2023-04-03T02:26:07;6.40;99.90
54082;DHT22;39986;50.770;0.266;2023-04-03T02:28:33;6.40;99.90
54082;DHT22;39986;50.770;0.266;2023-04-03T02:30:59;6.30;99.90
54082;DHT22;39986;50.770;0.266;2023-04-03T02:33:25;6.30;99.90
54082;DHT22;39986;50.770;0.266;2023-04-03T02:35:54;6.30;99.90
54082;DHT22;39986;50.770;0.266;2023-04-03T02:38:20;6.30;99.90
54082;DHT22;39986;50.770;0.266;2023-04-03T02:40:45;6.30;99.90
54082;DHT22;39986;50.770;0.266;2023-04-03T02:43:11;6.20;99.90
54082;DHT22;39986;50.770;0.266;2023-04-03T02:45:36;6.20;99.90
54082;DHT22;39986;50.770;0.266;2023-04-03T02:48:02;6.20;99.90
54082;DHT22;39986;50.770;0.266;2023-04-03T02:50:28;6.10;99.90
54082;DHT22;39986;50.770;0.266;2023-04-03T02:52:53;6.10;99.90
54082;DHT22;39986;50.770;0.266;2023-04-03T02:55:19;6.20;99.90
54082;DHT22;39986;50.770;0.266;2023-04-03T02:57:44;6.10;99.90
54082;DHT22;39986;50.770;0.266;2023-04-03T03:00:10;6.00;99.90
54082;DHT22;39986;50.770;0.266;2023-04-03T03:02:35;6.10;99.90
54082;DHT22;39986;50.770;0.266;2023-04-03T03:05:01;6.00;99.90
54082;DHT22;39986;50.770;0.266;2023-04-03T03:07:27;6.00;99.90
54082;DHT22;39986;50.770;0.266;2023-04-03T03:09:52;6.00;99.90
54082;DHT22;39986;50.770;0.266;2023-04-03T03:12:18;5.90;99.90
54082;DHT22;39986;50.770;0.266;2023-04-03T03:14:47;5.90;99.90
54082;DHT22;39986;50.770;0.266;2023-04-03T03:17:13;5.90;99.90
54082;DHT22;39986;50.770;0.266;2023-04-03T03:19:38;5.90;99.90
54082;DHT22;39986;50.770;0.266;2023-04-03T03:22:04;5.80;99.90
54082;DHT22;39986;50.770;0.266;2023-04-03T03:24:30;5.80;99.90
54082;DHT22;39986;50.770;0.266;2023-04-03T03:26:55;5.80;99.90
54082;DHT22;39986;50.770;0.266;2023-04-03T03:29:21;5.70;99.90
54082;DHT22;39986;50.770;0.266;2023-04-03T03:31:46;5.70;99.90
54082;DHT22;39986;50.770;0.266;2023-04-03T03:34:12;5.90;99.90
54082;DHT22;39986;50.770;0.266;2023-04-03T03:36:38;5.80;99.90
54082;DHT22;39986;50.770;0.266;2023-04-03T03:39:03;5.80;99.90
54082;DHT22;39986;50.770;0.266;2023-04-03T03:41:29;5.70;99.90
54082;DHT22;39986;50.770;0.266;2023-04-03T03:43:54;5.60;99.90
54082;DHT22;39986;50.770;0.266;2023-04-03T03:46:20;5.90;99.90
54082;DHT22;39986;50.770;0.266;2023-04-03T03:48:46;5.40;99.90
54082;DHT22;39986;50.770;0.266;2023-04-03T03:51:11;5.40;99.90
54082;DHT22;39986;50.770;0.266;2023-04-03T03:53:37;5.40;99.90
54082;DHT22;39986;50.770;0.266;2023-04-03T03:56:03;5.40;99.90
54082;DHT22;39986;50.770;0.266;2023-04-03T03:58:28;5.40;99.90
54082;DHT22;39986;50.770;0.266;2023-04-03T04:00:54;5.40;99.90
54082;DHT22;39986;50.770;0.266;2023-04-03T04:03:20;5.30;99.90
54082;DHT22;39986;50.770;0.266;2023-04-03T04:05:46;5.50;99.90
54082;DHT22;39986;50.770;0.266;2023-04-03T04:08:11;5.50;99.90
54082;DHT22;39986;50.770;0.266;2023-04-03T04:10:37;5.80;99.90
54082;DHT22;39986;50.770;0.266;2023-04-03T04:13:03;5.50;99.90
54082;DHT22;39986;50.770;0.266;2023-04-03T04:15:28;5.60;99.90
54082;DHT22;39986;50.770;0.266;2023-04-03T04:17:54;5.70;99.90
54082;DHT22;39986;50.770;0.266;2023-04-03T04:20:20;5.80;99.90
54082;DHT22;39986;50.770;0.266;2023-04-03T04:22:45;5.80;99.90
54082;DHT22;39986;50.770;0.266;2023-04-03T04:25:11;5.80;99.90
54082;DHT22;39986;50.770;0.266;2023-04-03T04:27:36;5.90;99.90
54082;DHT22;39986;50.770;0.266;2023-04-03T04:30:03;6.00;99.90
54082;DHT22;39986;50.770;0.266;2023-04-03T04:32:28;5.90;99.90
54082;DHT22;39986;50.770;0.266;2023-04-03T04:34:54;5.90;99.90
54082;DHT22;39986;50.770;0.266;2023-04-03T04:37:20;5.80;99.90
54082;DHT22;39986;50.770;0.266;2023-04-03T04:39:45;5.80;99.90
54082;DHT22;39986;50.770;0.266;2023-04-03T04:42:11;5.70;99.90
54082;DHT22;39986;50.770;0.266;2023-04-03T04:44:38;5.80;99.90
54082;DHT22;39986;50.770;0.266;2023-04-03T04:47:04;5.80;99.90
54082;DHT22;39986;50.770;0.266;2023-04-03T04:49:29;5.80;99.90
54082;DHT22;39986;50.770;0.266;2023-04-03T04:51:55;5.80;99.90
54082;DHT22;39986;50.770;0.266;2023-04-03T04:54:20;5.80;99.90
54082;DHT22;39986;50.770;0.266;2023-04-03T04:56:46;5.80;99.90
54082;DHT22;39986;50.770;0.266;2023-04-03T04:59:11;5.90;99.90
54082;DHT22;39986;50.770;0.266;2023-04-03T05:01:37;6.00;99.90
54082;DHT22;39986;50.770;0.266;2023-04-03T05:04:02;6.00;99.90
54082;DHT22;39986;50.770;0.266;2023-04-03T05:06:28;6.00;99.90
54082;DHT22;39986;50.770;0.266;2023-04-03T05:08:55;6.00;99.90
54082;DHT22;39986;50.770;0.266;2023-04-03T05:11:21;6.00;99.90
54082;DHT22;39986;50.770;0.266;2023-04-03T05:13:47;6.10;99.90
54082;DHT22;39986;50.770;0.266;2023-04-03T05:16:12;6.00;99.90
54082;DHT22;39986;50.770;0.266;2023-04-03T05:18:38;6.00;99.90
54082;DHT22;39986;50.770;0.266;2023-04-03T05:21:03;6.10;99.90
54082;DHT22;39986;50.770;0.266;2023-04-03T05:23:29;6.00;99.90
54082;DHT22;39986;50.770;0.266;2023-04-03T05:25:54;5.90;99.90
54082;DHT22;39986;50.770;0.266;2023-04-03T05:28:20;5.90;99.90
54082;DHT22;39986;50.770;0.266;2023-04-03T05:30:52;5.90;99.90
54082;DHT22;39986;50.770;0.266;2023-04-03T05:33:17;5.90;99.90
54082;DHT22;39986;50.770;0.266;2023-04-03T05:35:43;5.90;99.90
54082;DHT22;39986;50.770;0.266;2023-04-03T05:38:09;5.90;99.90
54082;DHT22;39986;50.770;0.266;2023-04-03T05:40:34;5.90;99.90
54082;DHT22;39986;50.770;0.266;2023-04-03T05:43:00;5.90;99.90
54082;DHT22;39986;50.770;0.266;2023-04-03T05:45:25;5.90;99.90
54082;DHT22;39986;50.770;0.266;2023-04-03T05:47:51;6.00;99.90
54082;DHT22;39986;50.770;0.266;2023-04-03T05:50:16;6.00;99.90
54082;DHT22;39986;50.770;0.266;2023-04-03T05:52:43;6.00;99.90
54082;DHT22;39986;50.770;0.266;2023-04-03T05:55:09;6.10;99.90
54082;DHT22;39986;50.770;0.266;2023-04-03T05:57:35;6.20;99.90
54082;DHT22;39986;50.770;0.266;2023-04-03T06:00:00;6.20;99.90
54082;DHT22;39986;50.770;0.266;2023-04-03T06:02:26;6.30;99.90
54082;DHT22;39986;50.770;0.266;2023-04-03T06:04:52;6.30;99.90
54082;DHT22;39986;50.770;0.266;2023-04-03T06:07:18;6.40;99.90
54082;DHT22;39986;50.770;0.266;2023-04-03T06:09:46;6.40;99.90
54082;DHT22;39986;50.770;0.266;2023-04-03T06:12:12;6.50;99.90
54082;DHT22;39986;50.770;0.266;2023-04-03T06:14:38;6.50;99.90
54082;DHT22;39986;50.770;0.266;2023-04-03T06:17:04;6.50;99.90
54082;DHT22;39986;50.770;0.266;2023-04-03T06:19:30;6.50;99.90
54082;DHT22;39986;50.770;0.266;2023-04-03T06:21:55;6.70;99.90
54082;DHT22;39986;50.770;0.266;2023-04-03T06:24:21;7.30;99.90
54082;DHT22;39986;50.770;0.266;2023-04-03T06:26:49;7.80;99.90
54082;DHT22;39986;50.770;0.266;2023-04-03T06:29:16;8.00;99.90
54082;DHT22;39986;50.770;0.266;2023-04-03T06:31:42;8.00;99.90
54082;DHT22;39986;50.770;0.266;2023-04-03T06:34:07;8.00;99.90
54082;DHT22;39986;50.770;0.266;2023-04-03T06:36:33;7.90;99.90
54082;DHT22;39986;50.770;0.266;2023-04-03T06:39:00;7.90;99.90
54082;DHT22;39986;50.770;0.266;2023-04-03T06:41:25;7.90;99.90
54082;DHT22;39986;50.770;0.266;2023-04-03T06:43:51;7.80;99.90
54082;DHT22;39986;50.770;0.266;2023-04-03T06:46:18;7.80;99.90
54082;DHT22;39986;50.770;0.266;2023-04-03T06:48:44;7.70;99.90
54082;DHT22;39986;50.770;0.266;2023-04-03T06:51:20;7.80;99.90
54082;DHT22;39986;50.770;0.266;2023-04-03T06:53:47;7.70;99.90
54082;DHT22;39986;50.770;0.266;2023-04-03T06:56:12;7.60;99.90
54082;DHT22;39986;50.770;0.266;2023-04-03T06:58:38;7.60;99.90
54082;DHT22;39986;50.770;0.266;2023-04-03T07:01:04;7.60;99.90
54082;DHT22;39986;50.770;0.266;2023-04-03T07:03:29;7.60;99.90
54082;DHT22;39986;50.770;0.266;2023-04-03T07:05:55;7.50;99.90
54082;DHT22;39986;50.770;0.266;2023-04-03T07:08:21;7.50;99.90
54082;DHT22;39986;50.770;0.266;2023-04-03T07:10:48;7.60;99.90
54082;DHT22;39986;50.770;0.266;2023-04-03T07:13:14;7.80;99.90
54082;DHT22;39986;50.770;0.266;2023-04-03T07:15:39;8.00;99.90
54082;DHT22;39986;50.770;0.266;2023-04-03T07:18:05;8.20;99.90
54082;DHT22;39986;50.770;0.266;2023-04-03T07:20:31;8.20;99.90
54082;DHT22;39986;50.770;0.266;2023-04-03T07:22:59;8.20;99.90
54082;DHT22;39986;50.770;0.266;2023-04-03T07:25:27;8.30;99.90
54082;DHT22;39986;50.770;0.266;2023-04-03T07:27:53;8.40;99.90
54082;DHT22;39986;50.770;0.266;2023-04-03T07:30:19;8.50;99.90
54082;DHT22;39986;50.770;0.266;2023-04-03T07:32:46;8.60;99.90
54082;DHT22;39986;50.770;0.266;2023-04-03T07:35:12;8.70;99.90
54082;DHT22;39986;50.770;0.266;2023-04-03T07:37:37;8.80;99.90
54082;DHT22;39986;50.770;0.266;2023-04-03T07:40:03;9.00;99.90
54082;DHT22;39986;50.770;0.266;2023-04-03T07:42:29;9.10;99.90
54082;DHT22;39986;50.770;0.266;2023-04-03T07:44:55;9.20;99.90
54082;DHT22;39986;50.770;0.266;2023-04-03T07:47:21;9.40;99.90
54082;DHT22;39986;50.770;0.266;2023-04-03T07:49:47;9.40;99.90
54082;DHT22;39986;50.770;0.266;2023-04-03T07:52:13;9.30;99.90
54082;DHT22;39986;50.770;0.266;2023-04-03T07:54:41;9.50;99.90
54082;DHT22;39986;50.770;0.266;2023-04-03T07:57:06;9.30;99.90
54082;DHT22;39986;50.770;0.266;2023-04-03T07:59:32;9.40;99.90
54082;DHT22;39986;50.770;0.266;2023-04-03T08:01:57;9.60;99.90
54082;DHT22;39986;50.770;0.266;2023-04-03T08:04:23;9.80;99.90
54082;DHT22;39986;50.770;0.266;2023-04-03T08:06:49;10.00;99.90
54082;DHT22;39986;50.770;0.266;2023-04-03T08:09:15;10.10;99.90
54082;DHT22;39986;50.770;0.266;2023-04-03T08:11:41;10.10;99.90
54082;DHT22;39986;50.770;0.266;2023-04-03T08:14:06;10.00;99.90
54082;DHT22;39986;50.770;0.266;2023-04-03T08:16:32;9.90;99.90
54082;DHT22;39986;50.770;0.266;2023-04-03T08:18:58;9.80;99.90
54082;DHT22;39986;50.770;0.266;2023-04-03T08:21:23;9.70;99.90
54082;DHT22;39986;50.770;0.266;2023-04-03T08:23:49;9.60;99.90
54082;DHT22;39986;50.770;0.266;2023-04-03T08:26:17;9.70;99.90
54082;DHT22;39986;50.770;0.266;2023-04-03T08:28:42;10.10;99.90
54082;DHT22;39986;50.770;0.266;2023-04-03T08:31:10;9.60;99.90
54082;DHT22;39986;50.770;0.266;2023-04-03T08:33:36;9.70;99.90
54082;DHT22;39986;50.770;0.266;2023-04-03T08:36:03;9.60;99.90
54082;DHT22;39986;50.770;0.266;2023-04-03T08:38:29;9.80;99.90
54082;DHT22;39986;50.770;0.266;2023-04-03T08:41:02;10.00;99.90
54082;DHT22;39986;50.770;0.266;2023-04-03T08:43:33;10.20;99.90
54082;DHT22;39986;50.770;0.266;2023-04-03T08:46:01;10.50;99.90
54082;DHT22;39986;50.770;0.266;2023-04-03T08:48:39;10.80;99.90
54082;DHT22;39986;50.770;0.266;2023-04-03T08:51:14;10.40;99.90
54082;DHT22;39986;50.770;0.266;2023-04-03T08:53:42;10.00;99.90
54082;DHT22;39986;50.770;0.266;2023-04-03T08:56:09;9.90;99.90
54082;DHT22;39986;50.770;0.266;2023-04-03T08:58:41;10.00;99.90
54082;DHT22;39986;50.770;0.266;2023-04-03T09:01:17;9.80;99.90
54082;DHT22;39986;50.770;0.266;2023-04-03T09:03:44;10.00;99.90
54082;DHT22;39986;50.770;0.266;2023-04-03T09:06:13;10.00;99.90
54082;DHT22;39986;50.770;0.266;2023-04-03T09:08:43;9.90;99.90
54082;DHT22;39986;50.770;0.266;2023-04-03T09:16:56;10.50;99.90
54082;DHT22;39986;50.770;0.266;2023-04-03T09:19:34;10.50;99.90
54082;DHT22;39986;50.770;0.266;2023-04-03T09:24:42;10.60;99.90
54082;DHT22;39986;50.770;0.266;2023-04-03T09:27:09;10.70;99.90
54082;DHT22;39986;50.770;0.266;2023-04-03T09:29:42;10.80;99.90
54082;DHT22;39986;50.770;0.266;2023-04-03T09:35:06;10.60;99.90
54082;DHT22;39986;50.770;0.266;2023-04-03T09:37:38;10.60;99.90
54082;DHT22;39986;50.770;0.266;2023-04-03T09:40:04;10.60;99.90
54082;DHT22;39986;50.770;0.266;2023-04-03T09:42:31;10.70;99.90
54082;DHT22;39986;50.770;0.266;2023-04-03T09:47:27;10.80;99.90
54082;DHT22;39986;50.770;0.266;2023-04-03T09:50:15;10.80;99.90
54082;DHT22;39986;50.770;0.266;2023-04-03T09:52:46;10.80;99.90
54082;DHT22;39986;50.770;0.266;2023-04-03T09:55:19;10.80;99.90
54082;DHT22;39986;50.770;0.266;2023-04-03T09:57:47;11.00;99.90
54082;DHT22;39986;50.770;0.266;2023-04-03T10:00:21;11.20;99.90
54082;DHT22;39986;50.770;0.266;2023-04-03T10:02:49;11.20;99.90
54082;DHT22;39986;50.770;0.266;2023-04-03T10:05:38;11.10;99.90
54082;DHT22;39986;50.770;0.266;2023-04-03T10:10:33;11.10;99.90
54082;DHT22;39986;50.770;0.266;2023-04-03T10:13:18;11.10;99.90
54082;DHT22;39986;50.770;0.266;2023-04-03T10:15:50;11.30;99.90
54082;DHT22;39986;50.770;0.266;2023-04-03T10:18:26;11.40;99.90
54082;DHT22;39986;50.770;0.266;2023-04-03T10:20:53;11.50;99.90
54082;DHT22;39986;50.770;0.266;2023-04-03T10:23:33;11.50;99.90
54082;DHT22;39986;50.770;0.266;2023-04-03T10:26:09;11.50;99.90
54082;DHT22;39986;50.770;0.266;2023-04-03T10:47:10;12.70;99.90
54082;DHT22;39986;50.770;0.266;2023-04-03T10:49:59;13.90;99.90
54082;DHT22;39986;50.770;0.266;2023-04-03T10:57:32;16.10;99.90
54082;DHT22;39986;50.770;0.266;2023-04-03T11:00:03;17.80;99.90
54082;DHT22;39986;50.770;0.266;2023-04-03T11:02:41;17.80;99.00
54082;DHT22;39986;50.770;0.266;2023-04-03T11:07:52;17.90;96.60
54082;DHT22;39986;50.770;0.266;2023-04-03T11:10:23;19.70;95.40
54082;DHT22;39986;50.770;0.266;2023-04-03T11:12:56;19.90;90.80
54082;DHT22;39986;50.770;0.266;2023-04-03T11:15:24;19.50;91.20
54082;DHT22;39986;50.770;0.266;2023-04-03T11:17:55;19.60;92.30
54082;DHT22;39986;50.770;0.266;2023-04-03T11:20:24;19.10;91.70
54082;DHT22;39986;50.770;0.266;2023-04-03T11:25:37;18.90;92.00
54082;DHT22;39986;50.770;0.266;2023-04-03T11:28:06;18.90;92.20
54082;DHT22;39986;50.770;0.266;2023-04-03T11:30:40;19.00;90.80
54082;DHT22;39986;50.770;0.266;2023-04-03T11:35:47;18.50;93.10
54082;DHT22;39986;50.770;0.266;2023-04-03T11:38:30;19.40;91.20
54082;DHT22;39986;50.770;0.266;2023-04-03T11:40:59;20.10;87.20
54082;DHT22;39986;50.770;0.266;2023-04-03T11:43:29;20.00;87.90
54082;DHT22;39986;50.770;0.266;2023-04-03T11:50:57;21.00;80.00
54082;DHT22;39986;50.770;0.266;2023-04-03T11:55:56;20.60;76.70
54082;DHT22;39986;50.770;0.266;2023-04-03T11:58:23;18.90;82.90
54082;DHT22;39986;50.770;0.266;2023-04-03T12:13:33;19.80;81.50
54082;DHT22;39986;50.770;0.266;2023-04-03T12:15:58;21.10;80.20
54082;DHT22;39986;50.770;0.266;2023-04-03T12:18:37;21.60;73.00
54082;DHT22;39986;50.770;0.266;2023-04-03T12:21:05;19.50;79.40
54082;DHT22;39986;50.770;0.266;2023-04-03T12:23:32;18.10;86.80
54082;DHT22;39986;50.770;0.266;2023-04-03T12:26:03;18.90;83.80
54082;DHT22;39986;50.770;0.266;2023-04-03T12:28:35;19.00;83.80
54082;DHT22;39986;50.770;0.266;2023-04-03T12:31:01;19.70;79.40
54082;DHT22;39986;50.770;0.266;2023-04-03T12:36:09;19.90;79.70
54082;DHT22;39986;50.770;0.266;2023-04-03T12:43:50;19.40;83.00
54082;DHT22;39986;50.770;0.266;2023-04-03T12:46:24;18.30;87.20
54082;DHT22;39986;50.770;0.266;2023-04-03T12:48:55;19.20;83.50
54082;DHT22;39986;50.770;0.266;2023-04-03T12:51:22;19.20;81.70
54082;DHT22;39986;50.770;0.266;2023-04-03T12:53:52;21.10;77.30
54082;DHT22;39986;50.770;0.266;2023-04-03T12:56:26;21.50;75.70
54082;DHT22;39986;50.770;0.266;2023-04-03T12:58:53;20.80;74.70
54082;DHT22;39986;50.770;0.266;2023-04-03T13:01:23;20.20;76.90
54082;DHT22;39986;50.770;0.266;2023-04-03T13:03:50;20.90;79.20
54082;DHT22;39986;50.770;0.266;2023-04-03T13:06:24;21.90;76.70
54082;DHT22;39986;50.770;0.266;2023-04-03T13:08:56;22.30;74.80
54082;DHT22;39986;50.770;0.266;2023-04-03T13:11:27;23.00;71.90
54082;DHT22;39986;50.770;0.266;2023-04-03T13:13:59;22.60;72.00
54082;DHT22;39986;50.770;0.266;2023-04-03T13:16:25;22.00;71.30
54082;DHT22;39986;50.770;0.266;2023-04-03T13:18:52;21.80;73.20
54082;DHT22;39986;50.770;0.266;2023-04-03T13:21:18;23.00;68.60
54082;DHT22;39986;50.770;0.266;2023-04-03T13:23:46;23.10;67.30
54082;DHT22;39986;50.770;0.266;2023-04-03T13:26:12;23.40;67.20
54082;DHT22;39986;50.770;0.266;2023-04-03T13:28:38;23.30;65.80
54082;DHT22;39986;50.770;0.266;2023-04-03T13:31:06;24.00;64.70
54082;DHT22;39986;50.770;0.266;2023-04-03T13:33:33;24.10;64.30
54082;DHT22;39986;50.770;0.266;2023-04-03T13:38:29;22.40;68.00
54082;DHT22;39986;50.770;0.266;2023-04-03T13:40:59;22.20;66.40
54082;DHT22;39986;50.770;0.266;2023-04-03T13:43:29;22.00;67.90
54082;DHT22;39986;50.770;0.266;2023-04-03T13:46:01;21.00;68.70
54082;DHT22;39986;50.770;0.266;2023-04-03T13:48:40;20.10;73.00
54082;DHT22;39986;50.770;0.266;2023-04-03T13:53:46;22.80;69.20
54082;DHT22;39986;50.770;0.266;2023-04-03T13:56:55;23.20;67.20
54082;DHT22;39986;50.770;0.266;2023-04-03T14:01:34;22.70;66.40
54082;DHT22;39986;50.770;0.266;2023-04-03T14:04:01;23.60;64.60
54082;DHT22;39986;50.770;0.266;2023-04-03T14:06:34;22.20;67.80
54082;DHT22;39986;50.770;0.266;2023-04-03T14:09:00;21.70;71.80
54082;DHT22;39986;50.770;0.266;2023-04-03T14:11:26;21.60;70.20
54082;DHT22;39986;50.770;0.266;2023-04-03T14:13:54;21.60;70.20
54082;DHT22;39986;50.770;0.266;2023-04-03T14:16:21;22.00;68.50
54082;DHT22;39986;50.770;0.266;2023-04-03T14:18:50;21.80;68.80
54082;DHT22;39986;50.770;0.266;2023-04-03T14:21:17;23.10;67.80
54082;DHT22;39986;50.770;0.266;2023-04-03T14:23:42;24.00;65.30
54082;DHT22;39986;50.770;0.266;2023-04-03T14:26:12;24.60;65.90
54082;DHT22;39986;50.770;0.266;2023-04-03T14:28:38;24.80;59.90
54082;DHT22;39986;50.770;0.266;2023-04-03T14:31:05;24.30;61.60
54082;DHT22;39986;50.770;0.266;2023-04-03T14:33:31;22.90;62.30
54082;DHT22;39986;50.770;0.266;2023-04-03T14:36:00;21.50;68.00
54082;DHT22;39986;50.770;0.266;2023-04-03T14:38:28;20.80;70.00
54082;DHT22;39986;50.770;0.266;2023-04-03T14:40:54;20.90;75.00
54082;DHT22;39986;50.770;0.266;2023-04-03T14:43:20;22.00;69.30
54082;DHT22;39986;50.770;0.266;2023-04-03T14:45:46;23.10;67.70
54082;DHT22;39986;50.770;0.266;2023-04-03T14:48:15;23.30;67.10
54082;DHT22;39986;50.770;0.266;2023-04-03T14:50:42;23.60;67.20
54082;DHT22;39986;50.770;0.266;2023-04-03T14:53:07;23.60;64.40
54082;DHT22;39986;50.770;0.266;2023-04-03T14:55:35;21.80;69.50
54082;DHT22;39986;50.770;0.266;2023-04-03T14:58:01;21.30;73.20
54082;DHT22;39986;50.770;0.266;2023-04-03T15:00:26;22.30;69.80
54082;DHT22;39986;50.770;0.266;2023-04-03T15:02:52;22.90;66.20
54082;DHT22;39986;50.770;0.266;2023-04-03T15:05:17;23.50;67.40
54082;DHT22;39986;50.770;0.266;2023-04-03T15:07:46;23.70;66.00
54082;DHT22;39986;50.770;0.266;2023-04-03T15:10:23;23.30;67.60
54082;DHT22;39986;50.770;0.266;2023-04-03T15:12:50;24.20;66.50
54082;DHT22;39986;50.770;0.266;2023-04-03T15:15:17;22.70;68.30
54082;DHT22;39986;50.770;0.266;2023-04-03T15:17:43;20.90;73.70
54082;DHT22;39986;50.770;0.266;2023-04-03T15:20:19;21.20;74.00
54082;DHT22;39986;50.770;0.266;2023-04-03T15:22:45;21.40;72.20
54082;DHT22;39986;50.770;0.266;2023-04-03T15:25:11;20.60;74.40
54082;DHT22;39986;50.770;0.266;2023-04-03T15:27:37;18.30;80.50
54082;DHT22;39986;50.770;0.266;2023-04-03T15:30:05;16.10;91.30
54082;DHT22;39986;50.770;0.266;2023-04-03T15:32:31;14.70;98.30
54082;DHT22;39986;50.770;0.266;2023-04-03T15:34:56;13.50;99.90
54082;DHT22;39986;50.770;0.266;2023-04-03T15:37:22;13.20;99.90
54082;DHT22;39986;50.770;0.266;2023-04-03T15:39:47;12.80;99.90
54082;DHT22;39986;50.770;0.266;2023-04-03T15:42:13;12.70;99.90
54082;DHT22;39986;50.770;0.266;2023-04-03T15:44:38;12.20;99.90
54082;DHT22;39986;50.770;0.266;2023-04-03T15:47:04;12.10;99.90
54082;DHT22;39986;50.770;0.266;2023-04-03T15:49:30;11.90;99.90
54082;DHT22;39986;50.770;0.266;2023-04-03T15:51:57;11.80;99.90
54082;DHT22;39986;50.770;0.266;2023-04-03T15:54:23;11.90;99.90
54082;DHT22;39986;50.770;0.266;2023-04-03T15:56:49;11.80;99.90
54082;DHT22;39986;50.770;0.266;2023-04-03T15:59:15;11.90;99.90
54082;DHT22;39986;50.770;0.266;2023-04-03T16:01:41;12.00;99.90
54082;DHT22;39986;50.770;0.266;2023-04-03T16:04:07;11.90;99.90
54082;DHT22;39986;50.770;0.266;2023-04-03T16:06:33;11.80;99.90
54082;DHT22;39986;50.770;0.266;2023-04-03T16:08:59;11.70;99.90
54082;DHT22;39986;50.770;0.266;2023-04-03T16:11:26;11.40;99.90
54082;DHT22;39986;50.770;0.266;2023-04-03T16:13:52;11.20;99.90
54082;DHT22;39986;50.770;0.266;2023-04-03T16:16:17;11.30;99.90
54082;DHT22;39986;50.770;0.266;2023-04-03T16:18:43;11.10;99.90
54082;DHT22;39986;50.770;0.266;2023-04-03T16:21:09;11.10;99.90
54082;DHT22;39986;50.770;0.266;2023-04-03T16:23:34;11.00;99.90
54082;DHT22;39986;50.770;0.266;2023-04-03T16:26:00;11.00;99.90
54082;DHT22;39986;50.770;0.266;2023-04-03T16:28:25;10.90;99.90
54082;DHT22;39986;50.770;0.266;2023-04-03T16:30:51;10.90;99.90
54082;DHT22;39986;50.770;0.266;2023-04-03T16:33:16;10.80;99.90
54082;DHT22;39986;50.770;0.266;2023-04-03T16:35:42;10.80;99.90
54082;DHT22;39986;50.770;0.266;2023-04-03T16:38:09;10.80;99.90
54082;DHT22;39986;50.770;0.266;2023-04-03T16:40:34;10.80;99.90
54082;DHT22;39986;50.770;0.266;2023-04-03T16:43:00;10.60;99.90
54082;DHT22;39986;50.770;0.266;2023-04-03T16:45:26;10.60;99.90
54082;DHT22;39986;50.770;0.266;2023-04-03T16:47:51;10.70;99.90
54082;DHT22;39986;50.770;0.266;2023-04-03T16:50:17;10.70;99.90
54082;DHT22;39986;50.770;0.266;2023-04-03T16:52:44;10.60;99.90
54082;DHT22;39986;50.770;0.266;2023-04-03T16:55:10;10.60;99.90
54082;DHT22;39986;50.770;0.266;2023-04-03T16:57:35;10.40;99.90
54082;DHT22;39986;50.770;0.266;2023-04-03T17:00:01;10.50;99.90
54082;DHT22;39986;50.770;0.266;2023-04-03T17:02:27;10.30;99.90
54082;DHT22;39986;50.770;0.266;2023-04-03T17:04:54;10.40;99.90
54082;DHT22;39986;50.770;0.266;2023-04-03T17:07:20;10.20;99.90